sensor_id;sensor_type;location;lat;lon;timestamp;P1;durP1;ratioP1;P2;durP2;ratioP2
75649;SDS011;64245;51.282;22.494;2023-02-15T00:01:51;41.72;;;16.17;;
75649;SDS011;64245;51.282;22.494;2023-02-15T00:04:19;43.80;;;17.55;;
75649;SDS011;64245;51.282;22.494;2023-02-15T00:06:45;38.70;;;13.93;;
75649;SDS011;64245;51.282;22.494;2023-02-15T00:09:12;53.15;;;18.58;;
75649;SDS011;64245;51.282;22.494;2023-02-15T00:11:38;47.88;;;19.02;;
75649;SDS011;64245;51.282;22.494;2023-02-15T00:14:13;49.85;;;18.65;;
75649;SDS011;64245;51.282;22.494;2023-02-15T00:16:41;46.78;;;19.00;;
75649;SDS011;64245;51.282;22.494;2023-02-15T00:19:08;24.45;;;10.77;;
75649;SDS011;64245;51.282;22.494;2023-02-15T00:21:35;49.97;;;18.73;;
75649;SDS011;64245;51.282;22.494;2023-02-15T00:24:02;48.47;;;18.50;;
75649;SDS011;64245;51.282;22.494;2023-02-15T00:26:29;47.47;;;18.83;;
75649;SDS011;64245;51.282;22.494;2023-02-15T00:28:56;49.15;;;17.90;;
75649;SDS011;64245;51.282;22.494;2023-02-15T00:31:24;50.40;;;19.85;;
75649;SDS011;64245;51.282;22.494;2023-02-15T00:33:50;45.75;;;16.63;;
75649;SDS011;64245;51.282;22.494;2023-02-15T00:36:15;44.90;;;17.17;;
75649;SDS011;64245;51.282;22.494;2023-02-15T00:38:41;41.50;;;16.08;;
75649;SDS011;64245;51.282;22.494;2023-02-15T00:41:07;41.63;;;16.17;;
75649;SDS011;64245;51.282;22.494;2023-02-15T00:43:34;51.63;;;18.70;;
75649;SDS011;64245;51.282;22.494;2023-02-15T00:46:00;55.63;;;19.58;;
75649;SDS011;64245;51.282;22.494;2023-02-15T00:48:27;43.58;;;17.60;;
75649;SDS011;64245;51.282;22.494;2023-02-15T00:50:54;43.50;;;16.92;;
75649;SDS011;64245;51.282;22.494;2023-02-15T00:53:21;49.80;;;18.80;;
75649;SDS011;64245;51.282;22.494;2023-02-15T00:55:47;47.72;;;17.40;;
75649;SDS011;64245;51.282;22.494;2023-02-15T00:58:14;49.80;;;18.33;;
75649;SDS011;64245;51.282;22.494;2023-02-15T01:00:40;49.35;;;18.67;;
75649;SDS011;64245;51.282;22.494;2023-02-15T01:03:08;46.25;;;17.20;;
75649;SDS011;64245;51.282;22.494;2023-02-15T01:05:34;47.70;;;17.70;;
75649;SDS011;64245;51.282;22.494;2023-02-15T01:08:00;43.75;;;18.05;;
75649;SDS011;64245;51.282;22.494;2023-02-15T01:10:25;42.72;;;16.27;;
75649;SDS011;64245;51.282;22.494;2023-02-15T01:12:53;49.88;;;17.63;;
75649;SDS011;64245;51.282;22.494;2023-02-15T01:15:19;47.97;;;16.80;;
75649;SDS011;64245;51.282;22.494;2023-02-15T01:17:45;44.78;;;16.85;;
75649;SDS011;64245;51.282;22.494;2023-02-15T01:20:20;45.83;;;16.80;;
75649;SDS011;64245;51.282;22.494;2023-02-15T01:22:47;52.22;;;19.70;;
75649;SDS011;64245;51.282;22.494;2023-02-15T01:25:15;49.42;;;19.70;;
75649;SDS011;64245;51.282;22.494;2023-02-15T01:27:42;55.67;;;18.30;;
75649;SDS011;64245;51.282;22.494;2023-02-15T01:30:08;49.67;;;17.55;;
75649;SDS011;64245;51.282;22.494;2023-02-15T01:32:34;49.17;;;18.20;;
75649;SDS011;64245;51.282;22.494;2023-02-15T01:34:59;53.90;;;19.13;;
75649;SDS011;64245;51.282;22.494;2023-02-15T01:37:25;50.80;;;19.42;;
75649;SDS011;64245;51.282;22.494;2023-02-15T01:39:51;50.42;;;17.95;;
75649;SDS011;64245;51.282;22.494;2023-02-15T01:42:23;46.33;;;17.35;;
75649;SDS011;64245;51.282;22.494;2023-02-15T01:44:51;45.10;;;17.92;;
75649;SDS011;64245;51.282;22.494;2023-02-15T01:47:36;50.08;;;19.73;;
75649;SDS011;64245;51.282;22.494;2023-02-15T01:50:10;47.03;;;16.63;;
75649;SDS011;64245;51.282;22.494;2023-02-15T01:52:40;51.17;;;18.42;;
75649;SDS011;64245;51.282;22.494;2023-02-15T01:55:16;46.97;;;17.85;;
75649;SDS011;64245;51.282;22.494;2023-02-15T01:57:43;44.95;;;16.65;;
75649;SDS011;64245;51.282;22.494;2023-02-15T02:00:10;49.55;;;19.00;;
75649;SDS011;64245;51.282;22.494;2023-02-15T02:02:36;46.38;;;18.80;;
75649;SDS011;64245;51.282;22.494;2023-02-15T02:05:03;48.60;;;16.48;;
75649;SDS011;64245;51.282;22.494;2023-02-15T02:07:33;49.47;;;19.10;;
75649;SDS011;64245;51.282;22.494;2023-02-15T02:10:03;44.25;;;17.05;;
75649;SDS011;64245;51.282;22.494;2023-02-15T02:12:30;48.88;;;16.52;;
75649;SDS011;64245;51.282;22.494;2023-02-15T02:14:57;49.85;;;18.52;;
75649;SDS011;64245;51.282;22.494;2023-02-15T02:31:14;50.45;;;18.75;;
75649;SDS011;64245;51.282;22.494;2023-02-15T02:34:19;46.65;;;18.58;;
75649;SDS011;64245;51.282;22.494;2023-02-15T02:37:03;43.20;;;17.67;;
75649;SDS011;64245;51.282;22.494;2023-02-15T02:50:38;40.53;;;16.70;;
75649;SDS011;64245;51.282;22.494;2023-02-15T02:53:05;47.55;;;18.50;;
75649;SDS011;64245;51.282;22.494;2023-02-15T02:55:32;45.80;;;16.33;;
75649;SDS011;64245;51.282;22.494;2023-02-15T03:00:48;42.88;;;15.75;;
75649;SDS011;64245;51.282;22.494;2023-02-15T03:03:25;43.53;;;16.70;;
75649;SDS011;64245;51.282;22.494;2023-02-15T03:05:57;46.13;;;16.88;;
75649;SDS011;64245;51.282;22.494;2023-02-15T03:08:25;48.22;;;17.33;;
75649;SDS011;64245;51.282;22.494;2023-02-15T03:10:59;46.47;;;17.33;;
75649;SDS011;64245;51.282;22.494;2023-02-15T03:13:26;42.03;;;15.70;;
75649;SDS011;64245;51.282;22.494;2023-02-15T03:15:53;44.15;;;17.13;;
75649;SDS011;64245;51.282;22.494;2023-02-15T03:18:50;42.30;;;16.42;;
75649;SDS011;64245;51.282;22.494;2023-02-15T03:21:34;44.80;;;15.45;;
75649;SDS011;64245;51.282;22.494;2023-02-15T03:24:11;40.88;;;16.48;;
75649;SDS011;64245;51.282;22.494;2023-02-15T03:26:40;35.60;;;13.73;;
75649;SDS011;64245;51.282;22.494;2023-02-15T03:29:10;39.95;;;15.45;;
75649;SDS011;64245;51.282;22.494;2023-02-15T03:31:38;36.38;;;13.98;;
75649;SDS011;64245;51.282;22.494;2023-02-15T03:34:08;43.33;;;15.02;;
75649;SDS011;64245;51.282;22.494;2023-02-15T03:39:32;45.33;;;15.85;;
75649;SDS011;64245;51.282;22.494;2023-02-15T03:42:07;42.38;;;14.73;;
75649;SDS011;64245;51.282;22.494;2023-02-15T03:47:16;41.85;;;14.90;;
75649;SDS011;64245;51.282;22.494;2023-02-15T03:49:54;36.78;;;13.60;;
75649;SDS011;64245;51.282;22.494;2023-02-15T03:52:26;38.60;;;14.68;;
75649;SDS011;64245;51.282;22.494;2023-02-15T03:54:54;34.30;;;12.25;;
75649;SDS011;64245;51.282;22.494;2023-02-15T03:57:22;30.45;;;12.77;;
75649;SDS011;64245;51.282;22.494;2023-02-15T04:00:14;34.67;;;11.88;;
75649;SDS011;64245;51.282;22.494;2023-02-15T04:03:09;33.92;;;13.10;;
75649;SDS011;64245;51.282;22.494;2023-02-15T04:05:36;34.10;;;13.40;;
75649;SDS011;64245;51.282;22.494;2023-02-15T04:08:03;36.20;;;13.63;;
75649;SDS011;64245;51.282;22.494;2023-02-15T04:10:28;33.38;;;12.73;;
75649;SDS011;64245;51.282;22.494;2023-02-15T04:13:13;37.35;;;13.55;;
75649;SDS011;64245;51.282;22.494;2023-02-15T04:15:38;32.97;;;12.95;;
75649;SDS011;64245;51.282;22.494;2023-02-15T04:18:23;36.30;;;13.13;;
75649;SDS011;64245;51.282;22.494;2023-02-15T04:21:07;31.63;;;13.27;;
75649;SDS011;64245;51.282;22.494;2023-02-15T04:23:51;34.72;;;12.10;;
75649;SDS011;64245;51.282;22.494;2023-02-15T04:26:35;38.35;;;14.73;;
75649;SDS011;64245;51.282;22.494;2023-02-15T04:29:01;32.00;;;12.73;;
75649;SDS011;64245;51.282;22.494;2023-02-15T04:31:27;34.28;;;12.80;;
75649;SDS011;64245;51.282;22.494;2023-02-15T04:33:53;30.40;;;12.27;;
75649;SDS011;64245;51.282;22.494;2023-02-15T04:36:18;35.00;;;13.82;;
75649;SDS011;64245;51.282;22.494;2023-02-15T04:38:44;36.53;;;13.27;;
75649;SDS011;64245;51.282;22.494;2023-02-15T04:41:09;30.95;;;12.90;;
75649;SDS011;64245;51.282;22.494;2023-02-15T04:43:36;29.98;;;12.52;;
75649;SDS011;64245;51.282;22.494;2023-02-15T04:46:02;33.75;;;12.50;;
75649;SDS011;64245;51.282;22.494;2023-02-15T04:48:28;34.60;;;13.40;;
75649;SDS011;64245;51.282;22.494;2023-02-15T04:50:53;35.35;;;13.60;;
75649;SDS011;64245;51.282;22.494;2023-02-15T04:53:19;31.05;;;13.07;;
75649;SDS011;64245;51.282;22.494;2023-02-15T04:55:44;32.75;;;13.07;;
75649;SDS011;64245;51.282;22.494;2023-02-15T04:58:10;31.83;;;13.65;;
75649;SDS011;64245;51.282;22.494;2023-02-15T05:00:35;30.15;;;12.73;;
75649;SDS011;64245;51.282;22.494;2023-02-15T05:03:02;33.88;;;12.93;;
75649;SDS011;64245;51.282;22.494;2023-02-15T05:05:27;30.45;;;11.70;;
75649;SDS011;64245;51.282;22.494;2023-02-15T05:07:53;29.02;;;11.70;;
75649;SDS011;64245;51.282;22.494;2023-02-15T05:10:19;30.40;;;12.23;;
75649;SDS011;64245;51.282;22.494;2023-02-15T05:12:45;37.30;;;13.77;;
75649;SDS011;64245;51.282;22.494;2023-02-15T05:15:10;30.23;;;11.60;;
75649;SDS011;64245;51.282;22.494;2023-02-15T05:17:36;31.73;;;13.43;;
75649;SDS011;64245;51.282;22.494;2023-02-15T05:20:02;26.13;;;11.18;;
75649;SDS011;64245;51.282;22.494;2023-02-15T05:22:29;30.50;;;11.55;;
75649;SDS011;64245;51.282;22.494;2023-02-15T05:24:54;29.95;;;12.60;;
75649;SDS011;64245;51.282;22.494;2023-02-15T05:27:39;31.13;;;11.35;;
75649;SDS011;64245;51.282;22.494;2023-02-15T05:30:23;31.45;;;12.05;;
75649;SDS011;64245;51.282;22.494;2023-02-15T05:32:49;28.98;;;12.27;;
75649;SDS011;64245;51.282;22.494;2023-02-15T05:35:14;32.30;;;12.93;;
75649;SDS011;64245;51.282;22.494;2023-02-15T05:37:41;36.85;;;12.98;;
75649;SDS011;64245;51.282;22.494;2023-02-15T05:40:07;29.52;;;11.98;;
75649;SDS011;64245;51.282;22.494;2023-02-15T05:42:33;36.78;;;12.93;;
75649;SDS011;64245;51.282;22.494;2023-02-15T05:44:59;34.95;;;13.55;;
75649;SDS011;64245;51.282;22.494;2023-02-15T05:47:24;29.80;;;12.45;;
75649;SDS011;64245;51.282;22.494;2023-02-15T05:49:50;34.00;;;13.73;;
75649;SDS011;64245;51.282;22.494;2023-02-15T05:52:16;31.70;;;12.73;;
75649;SDS011;64245;51.282;22.494;2023-02-15T05:54:42;34.75;;;14.32;;
75649;SDS011;64245;51.282;22.494;2023-02-15T05:57:07;35.17;;;12.77;;
75649;SDS011;64245;51.282;22.494;2023-02-15T05:59:33;34.88;;;12.13;;
75649;SDS011;64245;51.282;22.494;2023-02-15T06:01:59;33.95;;;14.77;;
75649;SDS011;64245;51.282;22.494;2023-02-15T06:04:24;29.42;;;11.68;;
75649;SDS011;64245;51.282;22.494;2023-02-15T06:06:50;33.22;;;13.05;;
75649;SDS011;64245;51.282;22.494;2023-02-15T06:09:15;37.58;;;14.02;;
75649;SDS011;64245;51.282;22.494;2023-02-15T06:11:44;29.95;;;12.02;;
75649;SDS011;64245;51.282;22.494;2023-02-15T06:14:10;29.60;;;12.30;;
75649;SDS011;64245;51.282;22.494;2023-02-15T06:16:36;34.88;;;12.88;;
75649;SDS011;64245;51.282;22.494;2023-02-15T06:19:02;30.95;;;12.63;;
75649;SDS011;64245;51.282;22.494;2023-02-15T06:21:29;37.05;;;14.35;;
75649;SDS011;64245;51.282;22.494;2023-02-15T06:23:55;38.25;;;14.98;;
75649;SDS011;64245;51.282;22.494;2023-02-15T06:26:21;34.08;;;13.32;;
75649;SDS011;64245;51.282;22.494;2023-02-15T06:28:47;33.67;;;13.65;;
75649;SDS011;64245;51.282;22.494;2023-02-15T06:31:12;32.08;;;11.85;;
75649;SDS011;64245;51.282;22.494;2023-02-15T06:33:38;31.35;;;11.82;;
75649;SDS011;64245;51.282;22.494;2023-02-15T06:36:04;33.85;;;13.50;;
75649;SDS011;64245;51.282;22.494;2023-02-15T06:38:29;32.00;;;13.30;;
75649;SDS011;64245;51.282;22.494;2023-02-15T06:40:56;31.02;;;12.57;;
75649;SDS011;64245;51.282;22.494;2023-02-15T06:43:22;31.35;;;13.23;;
75649;SDS011;64245;51.282;22.494;2023-02-15T06:45:47;34.10;;;14.43;;
75649;SDS011;64245;51.282;22.494;2023-02-15T06:48:13;32.33;;;12.70;;
75649;SDS011;64245;51.282;22.494;2023-02-15T06:50:40;39.97;;;14.35;;
75649;SDS011;64245;51.282;22.494;2023-02-15T06:53:05;33.85;;;14.35;;
75649;SDS011;64245;51.282;22.494;2023-02-15T06:55:31;35.42;;;13.45;;
75649;SDS011;64245;51.282;22.494;2023-02-15T06:57:56;38.30;;;14.85;;
75649;SDS011;64245;51.282;22.494;2023-02-15T07:00:22;29.25;;;13.27;;
75649;SDS011;64245;51.282;22.494;2023-02-15T07:02:52;38.53;;;13.98;;
75649;SDS011;64245;51.282;22.494;2023-02-15T07:05:21;31.98;;;12.38;;
75649;SDS011;64245;51.282;22.494;2023-02-15T07:07:47;32.35;;;13.30;;
75649;SDS011;64245;51.282;22.494;2023-02-15T07:10:13;34.38;;;13.65;;
75649;SDS011;64245;51.282;22.494;2023-02-15T07:12:39;35.83;;;14.32;;
75649;SDS011;64245;51.282;22.494;2023-02-15T07:15:12;33.13;;;11.98;;
75649;SDS011;64245;51.282;22.494;2023-02-15T07:17:40;32.67;;;11.32;;
75649;SDS011;64245;51.282;22.494;2023-02-15T07:20:10;33.13;;;12.63;;
75649;SDS011;64245;51.282;22.494;2023-02-15T07:22:37;24.83;;;10.52;;
75649;SDS011;64245;51.282;22.494;2023-02-15T07:25:04;28.75;;;11.77;;
75649;SDS011;64245;51.282;22.494;2023-02-15T07:27:31;27.90;;;11.43;;
75649;SDS011;64245;51.282;22.494;2023-02-15T07:29:58;26.65;;;10.95;;
75649;SDS011;64245;51.282;22.494;2023-02-15T07:32:26;31.42;;;13.15;;
75649;SDS011;64245;51.282;22.494;2023-02-15T07:34:53;38.35;;;13.95;;
75649;SDS011;64245;51.282;22.494;2023-02-15T07:37:18;27.55;;;12.98;;
75649;SDS011;64245;51.282;22.494;2023-02-15T07:39:44;25.98;;;9.95;;
75649;SDS011;64245;51.282;22.494;2023-02-15T07:42:10;21.33;;;9.63;;
75649;SDS011;64245;51.282;22.494;2023-02-15T07:44:35;21.20;;;9.05;;
75649;SDS011;64245;51.282;22.494;2023-02-15T07:47:01;23.77;;;9.30;;
75649;SDS011;64245;51.282;22.494;2023-02-15T07:49:27;22.95;;;9.27;;
75649;SDS011;64245;51.282;22.494;2023-02-15T07:51:53;22.40;;;8.88;;
75649;SDS011;64245;51.282;22.494;2023-02-15T07:54:18;20.00;;;8.25;;
75649;SDS011;64245;51.282;22.494;2023-02-15T07:56:44;25.27;;;9.68;;
75649;SDS011;64245;51.282;22.494;2023-02-15T07:59:10;22.05;;;9.05;;
75649;SDS011;64245;51.282;22.494;2023-02-15T08:01:36;21.95;;;9.93;;
75649;SDS011;64245;51.282;22.494;2023-02-15T08:04:04;25.52;;;10.38;;
75649;SDS011;64245;51.282;22.494;2023-02-15T08:06:34;24.35;;;10.25;;
75649;SDS011;64245;51.282;22.494;2023-02-15T08:09:07;26.42;;;10.93;;
75649;SDS011;64245;51.282;22.494;2023-02-15T08:11:34;23.83;;;9.88;;
75649;SDS011;64245;51.282;22.494;2023-02-15T08:14:09;29.75;;;11.60;;
75649;SDS011;64245;51.282;22.494;2023-02-15T08:19:03;28.35;;;12.68;;
75649;SDS011;64245;51.282;22.494;2023-02-15T08:21:37;29.80;;;12.00;;
75649;SDS011;64245;51.282;22.494;2023-02-15T08:24:05;29.67;;;10.95;;
75649;SDS011;64245;51.282;22.494;2023-02-15T08:26:31;29.35;;;11.32;;
75649;SDS011;64245;51.282;22.494;2023-02-15T08:28:57;29.48;;;11.50;;
75649;SDS011;64245;51.282;22.494;2023-02-15T08:31:24;28.15;;;12.35;;
75649;SDS011;64245;51.282;22.494;2023-02-15T08:33:51;34.10;;;12.82;;
75649;SDS011;64245;51.282;22.494;2023-02-15T08:36:19;29.08;;;11.50;;
75649;SDS011;64245;51.282;22.494;2023-02-15T08:38:46;33.97;;;13.80;;
75649;SDS011;64245;51.282;22.494;2023-02-15T08:41:16;31.05;;;12.95;;
75649;SDS011;64245;51.282;22.494;2023-02-15T08:43:46;34.30;;;12.60;;
75649;SDS011;64245;51.282;22.494;2023-02-15T08:46:14;35.80;;;14.10;;
75649;SDS011;64245;51.282;22.494;2023-02-15T08:48:41;33.25;;;14.07;;
75649;SDS011;64245;51.282;22.494;2023-02-15T08:51:08;32.10;;;12.98;;
75649;SDS011;64245;51.282;22.494;2023-02-15T08:53:37;36.38;;;14.65;;
75649;SDS011;64245;51.282;22.494;2023-02-15T08:56:03;34.88;;;15.25;;
75649;SDS011;64245;51.282;22.494;2023-02-15T08:58:30;34.75;;;14.18;;
75649;SDS011;64245;51.282;22.494;2023-02-15T09:00:56;40.80;;;16.27;;
75649;SDS011;64245;51.282;22.494;2023-02-15T09:03:22;28.48;;;13.07;;
75649;SDS011;64245;51.282;22.494;2023-02-15T09:05:48;34.60;;;12.88;;
75649;SDS011;64245;51.282;22.494;2023-02-15T09:08:14;35.75;;;13.18;;
75649;SDS011;64245;51.282;22.494;2023-02-15T09:10:40;35.38;;;13.60;;
75649;SDS011;64245;51.282;22.494;2023-02-15T09:13:06;32.67;;;13.05;;
75649;SDS011;64245;51.282;22.494;2023-02-15T09:15:31;32.83;;;12.07;;
75649;SDS011;64245;51.282;22.494;2023-02-15T09:17:57;31.65;;;13.05;;
75649;SDS011;64245;51.282;22.494;2023-02-15T09:20:26;35.00;;;13.60;;
75649;SDS011;64245;51.282;22.494;2023-02-15T09:22:53;40.50;;;16.15;;
75649;SDS011;64245;51.282;22.494;2023-02-15T09:25:19;29.63;;;12.55;;
75649;SDS011;64245;51.282;22.494;2023-02-15T09:27:46;21.25;;;11.48;;
75649;SDS011;64245;51.282;22.494;2023-02-15T09:30:11;36.40;;;14.88;;
75649;SDS011;64245;51.282;22.494;2023-02-15T09:32:37;36.17;;;13.85;;
75649;SDS011;64245;51.282;22.494;2023-02-15T09:35:03;38.30;;;14.65;;
75649;SDS011;64245;51.282;22.494;2023-02-15T09:37:32;37.35;;;14.63;;
75649;SDS011;64245;51.282;22.494;2023-02-15T09:39:57;39.30;;;14.10;;
75649;SDS011;64245;51.282;22.494;2023-02-15T09:45:16;29.00;;;12.02;;
75649;SDS011;64245;51.282;22.494;2023-02-15T09:53:59;25.73;;;10.55;;
75649;SDS011;64245;51.282;22.494;2023-02-15T09:59:23;37.20;;;14.82;;
75649;SDS011;64245;51.282;22.494;2023-02-15T10:08:24;28.25;;;11.73;;
75649;SDS011;64245;51.282;22.494;2023-02-15T10:16:20;23.13;;;9.80;;
75649;SDS011;64245;51.282;22.494;2023-02-15T10:19:04;28.80;;;11.05;;
75649;SDS011;64245;51.282;22.494;2023-02-15T10:27:55;23.70;;;10.57;;
75649;SDS011;64245;51.282;22.494;2023-02-15T10:30:46;27.15;;;11.27;;
75649;SDS011;64245;51.282;22.494;2023-02-15T10:33:21;26.08;;;11.00;;
75649;SDS011;64245;51.282;22.494;2023-02-15T10:36:05;24.27;;;10.45;;
75649;SDS011;64245;51.282;22.494;2023-02-15T10:38:42;23.98;;;9.15;;
75649;SDS011;64245;51.282;22.494;2023-02-15T10:44:25;22.27;;;10.15;;
75649;SDS011;64245;51.282;22.494;2023-02-15T10:50:13;21.85;;;9.05;;
75649;SDS011;64245;51.282;22.494;2023-02-15T10:58:07;23.92;;;8.98;;
75649;SDS011;64245;51.282;22.494;2023-02-15T11:08:23;25.33;;;10.40;;
75649;SDS011;64245;51.282;22.494;2023-02-15T11:10:53;28.73;;;10.65;;
75649;SDS011;64245;51.282;22.494;2023-02-15T11:13:23;27.25;;;11.50;;
75649;SDS011;64245;51.282;22.494;2023-02-15T11:15:55;25.58;;;11.45;;
75649;SDS011;64245;51.282;22.494;2023-02-15T11:18:32;27.60;;;11.52;;
75649;SDS011;64245;51.282;22.494;2023-02-15T11:21:02;25.63;;;11.27;;
75649;SDS011;64245;51.282;22.494;2023-02-15T11:23:28;27.55;;;13.15;;
75649;SDS011;64245;51.282;22.494;2023-02-15T11:28:29;24.15;;;10.93;;
75649;SDS011;64245;51.282;22.494;2023-02-15T11:31:01;22.95;;;10.05;;
75649;SDS011;64245;51.282;22.494;2023-02-15T11:33:37;23.58;;;9.38;;
75649;SDS011;64245;51.282;22.494;2023-02-15T11:36:15;23.70;;;9.73;;
75649;SDS011;64245;51.282;22.494;2023-02-15T11:41:18;25.05;;;9.70;;
75649;SDS011;64245;51.282;22.494;2023-02-15T11:44:00;24.85;;;10.15;;
75649;SDS011;64245;51.282;22.494;2023-02-15T11:46:32;25.60;;;10.80;;
75649;SDS011;64245;51.282;22.494;2023-02-15T11:48:57;24.70;;;9.95;;
75649;SDS011;64245;51.282;22.494;2023-02-15T11:51:23;21.83;;;9.73;;
75649;SDS011;64245;51.282;22.494;2023-02-15T11:53:52;26.30;;;10.57;;
75649;SDS011;64245;51.282;22.494;2023-02-15T11:56:19;24.25;;;10.77;;
75649;SDS011;64245;51.282;22.494;2023-02-15T11:58:54;22.02;;;11.30;;
75649;SDS011;64245;51.282;22.494;2023-02-15T12:03:57;23.48;;;10.75;;
75649;SDS011;64245;51.282;22.494;2023-02-15T12:06:29;20.13;;;9.45;;
75649;SDS011;64245;51.282;22.494;2023-02-15T12:09:01;20.77;;;9.98;;
75649;SDS011;64245;51.282;22.494;2023-02-15T12:11:39;20.88;;;9.30;;
75649;SDS011;64245;51.282;22.494;2023-02-15T12:14:10;21.33;;;10.13;;
75649;SDS011;64245;51.282;22.494;2023-02-15T12:16:46;21.33;;;10.88;;
75649;SDS011;64245;51.282;22.494;2023-02-15T12:21:48;20.15;;;10.02;;
75649;SDS011;64245;51.282;22.494;2023-02-15T12:24:18;20.25;;;10.05;;
75649;SDS011;64245;51.282;22.494;2023-02-15T12:26:57;20.95;;;10.13;;
75649;SDS011;64245;51.282;22.494;2023-02-15T12:29:28;21.17;;;9.85;;
75649;SDS011;64245;51.282;22.494;2023-02-15T12:31:56;24.30;;;10.48;;
75649;SDS011;64245;51.282;22.494;2023-02-15T12:36:55;26.50;;;11.02;;
75649;SDS011;64245;51.282;22.494;2023-02-15T12:39:24;19.00;;;9.45;;
75649;SDS011;64245;51.282;22.494;2023-02-15T12:41:57;20.73;;;9.73;;
75649;SDS011;64245;51.282;22.494;2023-02-15T12:44:26;22.95;;;10.63;;
75649;SDS011;64245;51.282;22.494;2023-02-15T12:49:41;20.63;;;10.00;;
75649;SDS011;64245;51.282;22.494;2023-02-15T12:57:13;22.17;;;9.32;;
75649;SDS011;64245;51.282;22.494;2023-02-15T12:59:58;22.05;;;9.95;;
75649;SDS011;64245;51.282;22.494;2023-02-15T13:05:35;23.70;;;10.52;;
75649;SDS011;64245;51.282;22.494;2023-02-15T13:08:10;24.02;;;12.35;;
75649;SDS011;64245;51.282;22.494;2023-02-15T13:11:05;20.83;;;9.85;;
75649;SDS011;64245;51.282;22.494;2023-02-15T13:13:50;22.75;;;10.15;;
75649;SDS011;64245;51.282;22.494;2023-02-15T13:16:20;18.80;;;9.77;;
75649;SDS011;64245;51.282;22.494;2023-02-15T13:18:53;21.23;;;10.35;;
75649;SDS011;64245;51.282;22.494;2023-02-15T13:21:20;23.45;;;11.27;;
75649;SDS011;64245;51.282;22.494;2023-02-15T13:23:55;26.38;;;11.02;;
75649;SDS011;64245;51.282;22.494;2023-02-15T13:26:25;21.63;;;10.52;;
75649;SDS011;64245;51.282;22.494;2023-02-15T13:28:55;22.30;;;10.73;;
75649;SDS011;64245;51.282;22.494;2023-02-15T13:31:25;22.77;;;10.75;;
75649;SDS011;64245;51.282;22.494;2023-02-15T13:34:03;20.05;;;10.43;;
75649;SDS011;64245;51.282;22.494;2023-02-15T13:39:20;24.02;;;11.00;;
75649;SDS011;64245;51.282;22.494;2023-02-15T13:42:00;20.88;;;10.68;;
75649;SDS011;64245;51.282;22.494;2023-02-15T13:55:51;22.98;;;11.38;;
75649;SDS011;64245;51.282;22.494;2023-02-15T14:25:56;25.77;;;11.88;;
75649;SDS011;64245;51.282;22.494;2023-02-15T14:28:30;30.95;;;12.75;;
75649;SDS011;64245;51.282;22.494;2023-02-15T14:30:57;29.10;;;12.15;;
75649;SDS011;64245;51.282;22.494;2023-02-15T14:36:02;23.08;;;11.55;;
75649;SDS011;64245;51.282;22.494;2023-02-15T14:41:04;28.17;;;12.98;;
75649;SDS011;64245;51.282;22.494;2023-02-15T14:43:49;25.92;;;11.70;;
75649;SDS011;64245;51.282;22.494;2023-02-15T14:46:50;25.90;;;11.18;;
75649;SDS011;64245;51.282;22.494;2023-02-15T14:49:41;26.70;;;11.52;;
75649;SDS011;64245;51.282;22.494;2023-02-15T14:52:08;27.08;;;11.27;;
75649;SDS011;64245;51.282;22.494;2023-02-15T15:07:23;32.22;;;12.95;;
75649;SDS011;64245;51.282;22.494;2023-02-15T15:09:59;32.17;;;12.90;;
75649;SDS011;64245;51.282;22.494;2023-02-15T15:15:01;27.35;;;12.63;;
75649;SDS011;64245;51.282;22.494;2023-02-15T15:20:02;33.47;;;14.70;;
75649;SDS011;64245;51.282;22.494;2023-02-15T15:22:32;31.52;;;14.35;;
75649;SDS011;64245;51.282;22.494;2023-02-15T15:25:04;28.88;;;12.07;;
75649;SDS011;64245;51.282;22.494;2023-02-15T15:27:45;30.83;;;11.25;;
75649;SDS011;64245;51.282;22.494;2023-02-15T15:33:16;29.15;;;12.27;;
75649;SDS011;64245;51.282;22.494;2023-02-15T15:41:52;34.15;;;13.15;;
75649;SDS011;64245;51.282;22.494;2023-02-15T15:44:31;33.72;;;13.07;;
75649;SDS011;64245;51.282;22.494;2023-02-15T15:47:25;32.22;;;12.27;;
75649;SDS011;64245;51.282;22.494;2023-02-15T15:50:16;30.90;;;12.68;;
75649;SDS011;64245;51.282;22.494;2023-02-15T15:52:46;30.38;;;13.90;;
75649;SDS011;64245;51.282;22.494;2023-02-15T15:55:22;29.67;;;14.05;;
75649;SDS011;64245;51.282;22.494;2023-02-15T15:57:50;30.77;;;12.38;;
75649;SDS011;64245;51.282;22.494;2023-02-15T16:00:35;34.47;;;13.60;;
75649;SDS011;64245;51.282;22.494;2023-02-15T16:03:14;30.42;;;12.38;;
75649;SDS011;64245;51.282;22.494;2023-02-15T16:05:45;35.53;;;13.85;;
75649;SDS011;64245;51.282;22.494;2023-02-15T16:08:11;36.30;;;14.10;;
75649;SDS011;64245;51.282;22.494;2023-02-15T16:10:36;39.08;;;14.65;;
75649;SDS011;64245;51.282;22.494;2023-02-15T16:13:04;36.08;;;13.40;;
75649;SDS011;64245;51.282;22.494;2023-02-15T16:15:34;36.53;;;13.75;;
75649;SDS011;64245;51.282;22.494;2023-02-15T16:18:14;34.20;;;13.98;;
75649;SDS011;64245;51.282;22.494;2023-02-15T16:20:46;34.50;;;13.85;;
75649;SDS011;64245;51.282;22.494;2023-02-15T16:29:13;51.30;;;17.75;;
75649;SDS011;64245;51.282;22.494;2023-02-15T16:31:40;61.78;;;19.25;;
75649;SDS011;64245;51.282;22.494;2023-02-15T16:34:09;58.60;;;19.38;;
75649;SDS011;64245;51.282;22.494;2023-02-15T16:36:41;62.10;;;20.13;;
75649;SDS011;64245;51.282;22.494;2023-02-15T16:39:08;70.50;;;23.58;;
75649;SDS011;64245;51.282;22.494;2023-02-15T16:41:35;68.00;;;22.90;;
75649;SDS011;64245;51.282;22.494;2023-02-15T16:44:05;67.82;;;23.58;;
75649;SDS011;64245;51.282;22.494;2023-02-15T16:46:35;69.40;;;25.30;;
75649;SDS011;64245;51.282;22.494;2023-02-15T16:49:07;82.43;;;29.15;;
75649;SDS011;64245;51.282;22.494;2023-02-15T16:51:41;68.50;;;23.73;;
75649;SDS011;64245;51.282;22.494;2023-02-15T16:54:15;74.03;;;26.20;;
75649;SDS011;64245;51.282;22.494;2023-02-15T16:56:46;74.60;;;26.05;;
75649;SDS011;64245;51.282;22.494;2023-02-15T17:02:13;78.72;;;26.13;;
75649;SDS011;64245;51.282;22.494;2023-02-15T17:04:42;95.55;;;33.67;;
75649;SDS011;64245;51.282;22.494;2023-02-15T17:07:18;74.32;;;26.70;;
75649;SDS011;64245;51.282;22.494;2023-02-15T17:09:49;88.00;;;30.50;;
75649;SDS011;64245;51.282;22.494;2023-02-15T17:15:24;90.90;;;29.95;;
75649;SDS011;64245;51.282;22.494;2023-02-15T17:20:46;160.65;;;50.15;;
75649;SDS011;64245;51.282;22.494;2023-02-15T17:26:13;195.27;;;57.28;;
75649;SDS011;64245;51.282;22.494;2023-02-15T17:28:50;248.30;;;76.68;;
75649;SDS011;64245;51.282;22.494;2023-02-15T17:31:20;254.25;;;74.97;;
75649;SDS011;64245;51.282;22.494;2023-02-15T17:33:46;248.13;;;75.70;;
75649;SDS011;64245;51.282;22.494;2023-02-15T17:41:26;229.77;;;68.78;;
75649;SDS011;64245;51.282;22.494;2023-02-15T17:43:53;221.23;;;66.45;;
75649;SDS011;64245;51.282;22.494;2023-02-15T17:46:19;236.23;;;71.88;;
75649;SDS011;64245;51.282;22.494;2023-02-15T17:48:49;243.80;;;73.55;;
75649;SDS011;64245;51.282;22.494;2023-02-15T17:51:16;260.88;;;76.82;;